Time;durP1;ratioP1;P1;durP2;ratioP2;P2;SDS_P1;SDS_P2;PMS_P1;PMS_P2;Temp;Humidity;BMP_temperature;BMP_pressure;BME280_temperature;BME280_humidity;BME280_pressure;Samples;Min_cycle;Max_cycle;Signal;HPM_P1;HPM_P2
2023/01/11 00:01:04;;;;;;;2.60;1.00;;;;;;;4.37;100.00;99845.72;6186985;23;20556;-79
2023/01/11 00:03:31;;;;;;;2.87;1.10;;;;;;;4.19;100.00;99839.03;6197521;23;20725;-79
2023/01/11 00:05:58;;;;;;;2.93;1.07;;;;;;;4.13;100.00;99845.84;6189476;23;20207;-78
2023/01/11 00:08:26;;;;;;;3.27;1.27;;;;;;;4.12;100.00;99844.19;6163765;23;20197;-79
2023/01/11 00:10:53;;;;;;;4.13;1.20;;;;;;;4.05;100.00;99835.28;6190888;23;20201;-79
2023/01/11 00:13:20;;;;;;;2.67;1.20;;;;;;;3.94;100.00;99846.25;6218027;23;20211;-80
2023/01/11 00:15:46;;;;;;;4.67;1.17;;;;;;;3.86;100.00;99833.88;6218871;23;20220;-80
2023/01/11 00:18:13;;;;;;;4.63;1.30;;;;;;;3.84;100.00;99845.63;6219036;23;20282;-80
2023/01/11 00:20:40;;;;;;;4.70;1.30;;;;;;;3.68;100.00;99843.88;6222605;23;20216;-81
2023/01/11 00:23:08;;;;;;;3.33;1.20;;;;;;;3.70;100.00;99835.72;6224622;23;20202;-81
2023/01/11 00:25:35;;;;;;;2.30;1.10;;;;;;;3.62;100.00;99833.94;6176640;23;20285;-81
2023/01/11 00:28:03;;;;;;;3.07;1.20;;;;;;;3.44;100.00;99833.31;6198415;23;20255;-79
2023/01/11 00:30:30;;;;;;;3.10;1.23;;;;;;;3.26;100.00;99844.13;6195901;23;20288;-80
2023/01/11 00:50:05;;;;;;;3.33;1.20;;;;;;;2.80;100.00;99837.66;6271801;22;20254;-81
2023/01/11 00:52:37;;;;;;;2.60;1.17;;;;;;;2.64;100.00;99830.56;6246450;23;20228;-83
2023/01/11 00:55:09;;;;;;;6.70;1.70;;;;;;;2.67;100.00;99832.03;6207305;23;20205;-83
2023/01/11 00:57:42;;;;;;;2.00;1.20;;;;;;;2.61;100.00;99835.34;6245759;23;20176;-83
2023/01/11 01:00:17;;;;;;;4.20;1.37;;;;;;;2.53;100.00;99838.78;6266538;22;20240;-82
2023/01/11 01:02:54;;;;;;;3.00;1.37;;;;;;;2.38;100.00;99840.41;6271286;23;20195;-83
2023/01/11 01:05:36;;;;;;;2.37;1.27;;;;;;;2.20;100.00;99829.13;6247200;23;20228;-83
2023/01/11 01:08:14;;;;;;;2.60;1.50;;;;;;;2.38;100.00;99836.97;6272933;23;20241;-83
2023/01/11 01:10:54;;;;;;;4.30;1.50;;;;;;;2.37;100.00;99827.38;6248094;23;20153;-83
2023/01/11 01:17:03;;;;;;;2.83;1.27;;;;;;;2.22;100.00;99832.47;6257930;23;20159;-83
2023/01/11 01:19:33;;;;;;;2.83;1.40;;;;;;;2.19;100.00;99833.59;6230443;23;20204;-83
2023/01/11 01:22:06;;;;;;;2.83;1.50;;;;;;;2.09;100.00;99835.56;6256097;22;20235;-83
2023/01/11 01:24:40;;;;;;;5.27;1.60;;;;;;;2.00;100.00;99820.69;6195992;23;20224;-83
2023/01/11 01:27:08;;;;;;;3.57;1.77;;;;;;;1.92;100.00;99831.19;6220846;23;20213;-83
2023/01/11 01:29:39;;;;;;;3.40;1.30;;;;;;;1.89;100.00;99831.53;6219611;23;20205;-83
2023/01/11 01:32:19;;;;;;;2.80;1.60;;;;;;;1.67;100.00;99821.53;6246077;23;20200;-83
2023/01/11 01:34:56;;;;;;;2.73;1.30;;;;;;;1.68;100.00;99834.56;6244198;23;20208;-82
2023/01/11 01:37:25;;;;;;;4.00;1.50;;;;;;;1.61;100.00;99822.16;6217228;23;20208;-83
2023/01/11 01:40:06;;;;;;;2.60;1.20;;;;;;;1.54;100.00;99823.78;6229226;22;20228;-82
2023/01/11 01:42:45;;;;;;;3.70;1.40;;;;;;;1.48;100.00;99816.47;6195865;23;20215;-82
2023/01/11 01:45:27;;;;;;;2.97;1.30;;;;;;;1.37;100.00;99814.09;6270499;23;20183;-83
2023/01/11 01:48:02;;;;;;;5.33;1.53;;;;;;;1.39;100.00;99818.25;6218870;23;20664;-83
2023/01/11 01:50:53;;;;;;;4.03;1.30;;;;;;;1.28;100.00;99813.22;6174959;23;20203;-82
2023/01/11 01:53:27;;;;;;;4.57;1.53;;;;;;;1.21;100.00;99809.56;6209688;23;20272;-82
2023/01/11 01:56:03;;;;;;;4.10;1.33;;;;;;;1.10;100.00;99807.16;6241075;23;20234;-84
2023/01/11 01:59:11;;;;;;;3.37;1.40;;;;;;;1.01;100.00;99800.19;6211118;22;20199;-84
2023/01/11 02:02:15;;;;;;;2.93;1.30;;;;;;;1.01;100.00;99802.81;6214659;22;20235;-84
2023/01/11 02:04:56;;;;;;;4.27;1.23;;;;;;;0.91;100.00;99794.16;6241727;23;20207;-84
2023/01/11 02:07:45;;;;;;;5.83;1.60;;;;;;;0.92;100.00;99807.22;6159755;23;20203;-84
2023/01/11 02:10:19;;;;;;;3.90;1.83;;;;;;;0.85;100.00;99800.88;6235898;23;20188;-82
2023/01/11 02:12:51;;;;;;;2.27;1.20;;;;;;;0.91;100.00;99805.56;6213791;23;20157;-82
2023/01/11 02:15:20;;;;;;;3.43;1.17;;;;;;;0.77;100.00;99795.53;6214193;23;20145;-82
2023/01/11 02:17:48;;;;;;;2.83;1.20;;;;;;;0.75;100.00;99800.13;6214024;23;20240;-82
2023/01/11 02:20:23;;;;;;;3.23;1.40;;;;;;;0.67;100.00;99792.16;6264874;23;20157;-82
2023/01/11 02:23:15;;;;;;;3.70;1.70;;;;;;;0.69;100.00;99791.03;6239835;23;20161;-83
2023/01/11 02:25:49;;;;;;;3.97;1.70;;;;;;;0.59;100.00;99786.84;6213513;23;20157;-82
2023/01/11 02:28:21;;;;;;;4.50;2.10;;;;;;;0.46;100.00;99779.31;6239542;23;20153;-82
2023/01/11 02:31:17;;;;;;;5.43;2.30;;;;;;;0.50;100.00;99785.09;6239747;23;20145;-82
2023/01/11 02:34:10;;;;;;;3.47;1.70;;;;;;;0.38;100.00;99780.06;6238910;23;20161;-82
2023/01/11 02:36:48;;;;;;;3.50;1.70;;;;;;;0.33;100.00;99795.50;6265643;23;20206;-82
2023/01/11 02:39:42;;;;;;;4.90;1.67;;;;;;;0.30;100.00;99789.69;6253273;23;20141;-81
2023/01/11 02:45:26;;;;;;;3.67;1.90;;;;;;;0.27;100.00;99779.47;6225958;23;20613;-81
2023/01/11 02:48:00;;;;;;;5.43;1.87;;;;;;;0.11;100.00;99768.75;6225633;23;20169;-81
2023/01/11 02:50:38;;;;;;;4.60;2.23;;;;;;;0.15;100.00;99772.75;6200898;23;20145;-80
2023/01/11 02:53:26;;;;;;;4.73;2.30;;;;;;;0.21;100.00;99766.88;6227942;23;20160;-81
2023/01/11 02:55:56;;;;;;;3.67;2.00;;;;;;;0.11;100.00;99763.47;6253572;23;20566;-81
2023/01/11 02:58:26;;;;;;;3.83;1.97;;;;;;;0.14;100.00;99768.47;6225361;23;20157;-80
2023/01/11 03:00:54;;;;;;;5.00;2.27;;;;;;;0.01;100.00;99776.72;6225218;23;20157;-80
2023/01/11 03:03:23;;;;;;;5.00;2.23;;;;;;;-0.09;100.00;99766.25;6226836;23;20175;-80
2023/01/11 03:06:26;;;;;;;5.07;2.30;;;;;;;-0.08;100.00;99767.91;6226517;23;20664;-81
2023/01/11 03:09:01;;;;;;;4.73;2.90;;;;;;;-0.15;100.00;99772.13;6130826;23;20167;-80
2023/01/11 03:14:55;;;;;;;5.80;2.03;;;;;;;0.04;100.00;99767.72;6274146;23;20183;-83
2023/01/11 03:17:27;;;;;;;3.70;2.00;;;;;;;0.15;100.00;99768.31;6238504;23;20207;-79
2023/01/11 03:20:08;;;;;;;7.77;2.07;;;;;;;0.28;100.00;99768.75;6214220;23;20578;-80
2023/01/11 03:22:47;;;;;;;6.30;1.80;;;;;;;0.43;100.00;99766.41;6248629;23;20155;-80
2023/01/11 03:25:20;;;;;;;2.70;1.23;;;;;;;0.60;100.00;99765.59;6249098;23;20566;-78
2023/01/11 03:28:00;;;;;;;4.17;1.53;;;;;;;0.71;100.00;99757.41;6224376;23;20172;-77
2023/01/11 03:30:39;;;;;;;2.57;1.30;;;;;;;0.89;100.00;99762.66;6250758;23;20498;-77
2023/01/11 03:33:11;;;;;;;3.27;1.50;;;;;;;1.32;100.00;99762.59;6222876;23;20232;-77
2023/01/11 03:35:47;;;;;;;4.47;1.63;;;;;;;1.34;100.00;99757.16;6221648;23;20164;-77
2023/01/11 03:38:16;;;;;;;3.33;1.30;;;;;;;1.55;100.00;99760.22;6247986;23;20223;-78
2023/01/11 03:40:49;;;;;;;2.67;1.47;;;;;;;1.58;100.00;99754.66;6248697;23;20540;-77
2023/01/11 03:43:18;;;;;;;2.87;1.50;;;;;;;1.63;100.00;99762.09;6223282;23;20216;-78
2023/01/11 03:46:04;;;;;;;2.83;1.50;;;;;;;1.74;100.00;99769.69;6249988;23;20563;-78
2023/01/11 03:48:35;;;;;;;3.77;1.40;;;;;;;1.83;100.00;99760.81;6198817;23;20161;-78
2023/01/11 03:51:02;;;;;;;2.77;1.30;;;;;;;1.86;100.00;99767.63;6223934;23;20157;-80
2023/01/11 03:53:30;;;;;;;2.60;1.27;;;;;;;2.00;100.00;99765.19;6223949;23;20161;-80
2023/01/11 03:55:59;;;;;;;2.97;1.23;;;;;;;2.00;100.00;99751.97;6223888;23;20603;-81
2023/01/11 03:58:28;;;;;;;5.07;1.47;;;;;;;2.01;100.00;99755.41;6250744;23;20240;-80
2023/01/11 04:00:56;;;;;;;5.90;1.73;;;;;;;2.09;100.00;99752.81;6248309;23;20168;-80
2023/01/11 04:03:23;;;;;;;5.30;1.60;;;;;;;2.03;100.00;99754.28;6221325;23;20614;-80
2023/01/11 04:05:56;;;;;;;4.53;1.50;;;;;;;1.98;100.00;99747.81;6249072;23;20216;-80
2023/01/11 04:08:23;;;;;;;3.67;1.87;;;;;;;1.98;100.00;99746.00;6249843;23;20169;-80
2023/01/11 04:10:50;;;;;;;3.17;1.47;;;;;;;2.07;100.00;99744.19;6248272;23;20173;-80
2023/01/11 04:13:17;;;;;;;3.50;1.53;;;;;;;2.03;100.00;99746.34;6248043;23;20240;-80
2023/01/11 04:15:43;;;;;;;3.07;1.50;;;;;;;2.17;100.00;99752.81;6251207;23;20215;-80
2023/01/11 04:18:10;;;;;;;4.60;1.83;;;;;;;2.14;100.00;99753.97;6250738;23;20606;-80
2023/01/11 04:20:39;;;;;;;4.37;1.70;;;;;;;2.27;100.00;99744.72;6251034;23;20167;-81
2023/01/11 04:23:07;;;;;;;5.20;1.60;;;;;;;2.39;100.00;99732.84;6250038;23;20153;-78
2023/01/11 04:25:33;;;;;;;2.60;1.47;;;;;;;2.37;100.00;99743.59;6250306;23;20161;-78
2023/01/11 04:28:00;;;;;;;4.70;2.30;;;;;;;2.22;100.00;99751.34;6250394;23;20223;-78
2023/01/11 04:30:27;;;;;;;2.73;1.67;;;;;;;2.22;100.00;99745.22;6250051;23;20172;-78
2023/01/11 04:32:56;;;;;;;4.87;1.87;;;;;;;2.10;100.00;99733.31;6232560;23;20161;-79
2023/01/11 04:35:24;;;;;;;5.23;2.00;;;;;;;1.89;100.00;99738.22;6208269;23;20199;-79
2023/01/11 04:37:55;;;;;;;4.93;1.97;;;;;;;1.79;100.00;99727.78;6208360;23;20211;-80
2023/01/11 04:40:23;;;;;;;5.53;2.17;;;;;;;1.87;100.00;99727.00;6210431;23;20172;-80
2023/01/11 04:42:50;;;;;;;4.53;1.70;;;;;;;1.89;100.00;99728.47;6234063;23;20196;-79
2023/01/11 04:45:17;;;;;;;3.70;1.57;;;;;;;1.84;100.00;99735.22;6199766;23;20168;-78
2023/01/11 04:47:43;;;;;;;3.70;1.77;;;;;;;1.85;100.00;99732.44;6221603;23;20181;-78
2023/01/11 04:50:10;;;;;;;3.57;1.80;;;;;;;1.80;100.00;99734.72;6222370;23;20169;-78
2023/01/11 04:52:39;;;;;;;3.93;1.80;;;;;;;1.68;100.00;99739.47;6249288;23;20165;-78
2023/01/11 04:55:06;;;;;;;3.50;1.57;;;;;;;1.77;100.00;99735.06;6247275;23;20637;-78
2023/01/11 04:57:33;;;;;;;3.70;2.10;;;;;;;1.60;100.00;99730.69;6247525;23;20171;-78
2023/01/11 04:59:59;;;;;;;3.60;1.70;;;;;;;1.39;100.00;99733.75;6220801;23;20183;-77
2023/01/11 05:02:26;;;;;;;4.60;1.73;;;;;;;1.29;100.00;99728.59;6247800;23;20161;-79
2023/01/11 05:04:52;;;;;;;5.10;1.70;;;;;;;1.26;100.00;99723.63;6247670;23;20240;-78
2023/01/11 05:07:19;;;;;;;5.83;1.80;;;;;;;1.16;100.00;99722.94;6247422;23;20255;-78
2023/01/11 05:09:46;;;;;;;4.23;1.80;;;;;;;1.09;100.00;99721.91;6251569;23;20162;-80
2023/01/11 05:12:12;;;;;;;4.73;1.80;;;;;;;0.96;100.00;99725.94;6226501;23;20192;-79
2023/01/11 05:14:39;;;;;;;4.23;1.80;;;;;;;0.86;100.00;99726.03;6251753;23;20172;-79
2023/01/11 05:17:06;;;;;;;5.03;1.90;;;;;;;0.75;100.00;99713.09;6225807;23;20181;-78
2023/01/11 05:19:32;;;;;;;3.97;1.87;;;;;;;0.64;100.00;99714.22;6249262;23;20565;-78
2023/01/11 05:21:59;;;;;;;4.60;1.77;;;;;;;0.59;100.00;99713.00;6249963;23;20176;-78
2023/01/11 05:24:25;;;;;;;4.27;2.20;;;;;;;0.67;100.00;99724.44;6222493;23;20165;-78
2023/01/11 05:26:52;;;;;;;5.60;2.03;;;;;;;0.51;100.00;99719.06;6249524;23;20191;-78
2023/01/11 05:29:20;;;;;;;5.23;2.83;;;;;;;0.92;100.00;99720.16;6223412;23;20174;-78
2023/01/11 05:31:47;;;;;;;3.90;2.47;;;;;;;0.67;100.00;99720.97;6250259;23;20161;-77
2023/01/11 05:34:15;;;;;;;5.10;2.40;;;;;;;0.61;100.00;99721.56;6250612;23;20162;-78
2023/01/11 05:36:42;;;;;;;5.37;2.27;;;;;;;0.81;100.00;99720.41;6222310;23;20197;-78
2023/01/11 05:39:11;;;;;;;5.37;2.20;;;;;;;0.71;100.00;99719.66;6249488;23;20165;-78
2023/01/11 05:41:38;;;;;;;4.77;2.00;;;;;;;0.77;100.00;99721.69;6222564;23;20216;-78
2023/01/11 05:46:50;;;;;;;4.03;2.00;;;;;;;0.93;100.00;99721.81;6251049;23;20145;-79
2023/01/11 05:49:17;;;;;;;4.77;2.50;;;;;;;1.01;100.00;99721.03;6249855;23;20164;-79
2023/01/11 05:51:43;;;;;;;6.60;2.00;;;;;;;0.88;100.00;99711.72;6250654;23;20188;-79
2023/01/11 05:54:13;;;;;;;3.73;2.00;;;;;;;0.90;100.00;99716.84;6250246;23;20195;-78
2023/01/11 05:56:43;;;;;;;3.80;1.93;;;;;;;0.81;100.00;99715.13;6249666;23;20187;-78
2023/01/11 05:59:10;;;;;;;4.97;1.90;;;;;;;0.60;100.00;99714.66;6249678;23;20153;-78
2023/01/11 06:01:37;;;;;;;4.47;2.53;;;;;;;0.45;100.00;99714.38;6249087;23;20229;-80
2023/01/11 06:04:04;;;;;;;3.93;2.43;;;;;;;0.36;100.00;99712.66;6247816;23;20177;-79
2023/01/11 06:06:31;;;;;;;5.43;2.80;;;;;;;0.21;100.00;99703.63;6220825;23;20211;-80
2023/01/11 06:08:58;;;;;;;4.83;2.40;;;;;;;0.10;100.00;99709.97;6220654;23;20550;-78
2023/01/11 06:11:24;;;;;;;3.40;2.37;;;;;;;-0.01;100.00;99713.66;6247791;23;20228;-78
2023/01/11 06:13:51;;;;;;;4.60;2.33;;;;;;;-0.07;100.00;99722.16;6247736;23;20263;-78
2023/01/11 06:16:19;;;;;;;7.80;2.30;;;;;;;-0.15;100.00;99716.81;6247023;23;20207;-77
2023/01/11 06:18:48;;;;;;;3.67;2.10;;;;;;;-0.25;100.00;99728.38;6247979;23;20213;-78
2023/01/11 06:21:15;;;;;;;5.93;2.43;;;;;;;-0.27;100.00;99738.22;6247683;23;20275;-79
2023/01/11 06:23:45;;;;;;;9.00;4.60;;;;;;;-0.31;100.00;99740.34;6248308;23;20215;-78
2023/01/11 06:26:16;;;;;;;6.13;3.97;;;;;;;-0.39;100.00;99742.03;6247087;23;20204;-77
2023/01/11 06:28:43;;;;;;;10.27;5.20;;;;;;;-0.49;100.00;99740.28;6246082;23;20215;-77
2023/01/11 06:31:10;;;;;;;12.17;6.47;;;;;;;-0.53;100.00;99744.19;6196536;23;20259;-78
2023/01/11 06:33:37;;;;;;;9.60;5.57;;;;;;;-0.57;100.00;99744.63;6247746;23;20208;-78
2023/01/11 06:36:08;;;;;;;7.93;4.87;;;;;;;-0.62;100.00;99741.63;6232366;23;20216;-78
2023/01/11 06:38:36;;;;;;;5.03;3.13;;;;;;;-0.73;100.00;99740.00;6229627;23;20204;-78
2023/01/11 06:41:04;;;;;;;3.63;2.17;;;;;;;-0.81;100.00;99739.06;6220559;23;20201;-78
2023/01/11 06:43:31;;;;;;;5.17;2.13;;;;;;;-0.82;100.00;99729.50;6247643;23;20280;-78
2023/01/11 06:45:58;;;;;;;4.00;2.17;;;;;;;-0.89;100.00;99724.81;6220841;23;20665;-78
2023/01/11 06:48:26;;;;;;;5.23;2.50;;;;;;;-0.91;100.00;99732.03;6220793;23;20283;-78
2023/01/11 06:50:55;;;;;;;3.70;2.10;;;;;;;-0.94;100.00;99728.88;6247364;23;20283;-78
2023/01/11 06:53:23;;;;;;;5.57;2.37;;;;;;;-0.95;100.00;99728.03;6247348;23;20208;-78
2023/01/11 06:55:53;;;;;;;5.10;2.40;;;;;;;-0.98;100.00;99724.88;6221327;23;20672;-78
2023/01/11 06:58:22;;;;;;;5.30;2.33;;;;;;;-1.04;100.00;99733.31;6219980;23;20713;-78
2023/01/11 07:00:50;;;;;;;5.90;2.13;;;;;;;-1.09;100.00;99738.19;6207099;23;20268;-78
2023/01/11 07:03:16;;;;;;;4.23;2.07;;;;;;;-0.98;100.00;99745.91;6246694;23;20209;-78
2023/01/11 07:05:44;;;;;;;4.77;2.30;;;;;;;-0.89;100.00;99751.13;6247406;23;20283;-78
2023/01/11 07:08:11;;;;;;;6.57;2.30;;;;;;;-0.86;100.00;99747.38;6246772;23;20234;-78
2023/01/11 07:10:37;;;;;;;3.93;2.13;;;;;;;-0.80;100.00;99754.72;6220611;23;20209;-78
2023/01/11 07:13:04;;;;;;;5.37;2.33;;;;;;;-0.77;100.00;99750.94;6247127;23;20212;-79
2023/01/11 07:15:30;;;;;;;3.50;2.10;;;;;;;-0.76;100.00;99749.97;6248301;23;20185;-78
2023/01/11 07:17:58;;;;;;;7.10;2.63;;;;;;;-0.70;100.00;99758.09;6246938;23;20264;-79
2023/01/11 07:20:25;;;;;;;4.40;2.30;;;;;;;-0.66;100.00;99756.03;6220255;23;20203;-78
2023/01/11 07:22:58;;;;;;;5.40;2.47;;;;;;;-0.56;100.00;99751.56;6248530;23;20207;-78
2023/01/11 07:25:26;;;;;;;5.67;2.53;;;;;;;-0.47;100.00;99751.50;6247347;23;20236;-79
2023/01/11 07:28:01;;;;;;;5.87;2.37;;;;;;;-0.41;100.00;99752.72;6248076;23;20701;-78
2023/01/11 07:30:29;;;;;;;5.50;2.70;;;;;;;-0.29;100.00;99754.19;6222004;23;20200;-78
2023/01/11 07:32:57;;;;;;;4.07;2.67;;;;;;;-0.21;100.00;99750.81;6248285;23;20258;-78
2023/01/11 07:35:25;;;;;;;4.97;2.63;;;;;;;-0.18;100.00;99759.22;6246652;23;20291;-78
2023/01/11 07:37:54;;;;;;;8.47;2.70;;;;;;;-0.11;100.00;99751.56;6194216;23;20205;-79
2023/01/11 07:40:21;;;;;;;5.67;2.97;;;;;;;-0.05;100.00;99748.38;6247222;23;20654;-78
2023/01/11 07:45:34;;;;;;;7.90;3.20;;;;;;;0.14;100.00;99742.13;6245787;23;20205;-79
2023/01/11 07:48:12;;;;;;;7.47;3.00;;;;;;;0.16;100.00;99740.16;6247284;23;20204;-78
2023/01/11 07:50:39;;;;;;;7.90;3.50;;;;;;;0.16;100.00;99727.81;6249630;23;20260;-79
2023/01/11 07:53:09;;;;;;;8.43;2.87;;;;;;;0.19;100.00;99724.88;6250128;23;20204;-79
2023/01/11 07:55:38;;;;;;;9.33;3.80;;;;;;;0.30;100.00;99729.09;6248230;23;20204;-78
2023/01/11 07:58:06;;;;;;;7.77;3.70;;;;;;;0.33;100.00;99747.22;6223227;23;20215;-78
2023/01/11 08:00:32;;;;;;;10.67;3.60;;;;;;;0.38;100.00;99731.78;6223399;23;20207;-78
2023/01/11 08:02:59;;;;;;;7.40;3.50;;;;;;;0.41;100.00;99748.13;6249993;23;20205;-78
2023/01/11 08:05:26;;;;;;;8.30;3.33;;;;;;;0.50;100.00;99741.13;6250375;23;20204;-78
2023/01/11 08:07:53;;;;;;;7.17;2.87;;;;;;;0.58;100.00;99741.19;6250869;23;20503;-79
2023/01/11 08:10:19;;;;;;;8.30;2.90;;;;;;;0.70;100.00;99744.41;6249349;23;20207;-78
2023/01/11 08:15:35;;;;;;;8.57;2.30;;;;;;;0.92;100.00;99727.25;6227261;23;20684;-78
2023/01/11 08:18:05;;;;;;;7.77;3.40;;;;;;;0.98;100.00;99734.53;6247271;23;20658;-79
2023/01/11 08:20:32;;;;;;;5.30;2.60;;;;;;;1.12;100.00;99731.31;6249815;23;20205;-78
2023/01/11 08:23:05;;;;;;;6.07;2.67;;;;;;;1.13;100.00;99727.69;6249570;23;20204;-78
2023/01/11 08:25:32;;;;;;;8.17;2.77;;;;;;;1.22;100.00;99726.72;6223286;23;20208;-78
2023/01/11 08:28:03;;;;;;;6.60;2.70;;;;;;;1.30;100.00;99726.78;6197517;23;20531;-78
2023/01/11 08:30:31;;;;;;;4.60;2.70;;;;;;;1.39;100.00;99732.94;6221005;23;20231;-78
2023/01/11 08:33:00;;;;;;;5.23;2.53;;;;;;;1.50;100.00;99740.56;6250002;23;20204;-78
2023/01/11 08:35:26;;;;;;;6.07;2.50;;;;;;;1.56;100.00;99729.38;6248238;23;20213;-78
2023/01/11 08:37:53;;;;;;;6.80;2.70;;;;;;;1.63;100.00;99730.41;6248852;23;20283;-79
2023/01/11 08:40:20;;;;;;;4.70;2.63;;;;;;;1.75;100.00;99734.38;6249306;23;20271;-79
2023/01/11 08:42:54;;;;;;;7.07;2.67;;;;;;;1.87;100.00;99742.84;6215435;23;20232;-78
2023/01/11 08:45:21;;;;;;;5.20;2.77;;;;;;;1.94;100.00;99742.03;6222717;23;20228;-78
2023/01/11 08:47:49;;;;;;;7.77;2.77;;;;;;;2.03;100.00;99743.72;6223392;23;20288;-80
2023/01/11 08:50:17;;;;;;;8.47;3.23;;;;;;;2.21;100.00;99747.03;6249030;23;20205;-78
2023/01/11 08:52:44;;;;;;;9.00;5.27;;;;;;;2.38;100.00;99745.22;6222842;23;20204;-79
2023/01/11 08:55:11;;;;;;;8.97;5.47;;;;;;;2.39;100.00;99749.53;6249887;23;20209;-79
2023/01/11 08:57:38;;;;;;;9.37;4.47;;;;;;;2.48;100.00;99748.53;6223648;23;20218;-78
2023/01/11 09:00:06;;;;;;;8.17;3.60;;;;;;;2.58;100.00;99743.09;6247655;23;20212;-80
2023/01/11 09:02:33;;;;;;;7.27;3.67;;;;;;;2.59;100.00;99744.75;6222622;23;20216;-79
2023/01/11 09:04:59;;;;;;;5.97;3.27;;;;;;;2.64;100.00;99737.97;6238975;23;20201;-82
2023/01/11 09:07:26;;;;;;;6.90;2.97;;;;;;;2.79;100.00;99738.13;6251034;23;20216;-82
2023/01/11 09:09:53;;;;;;;4.90;2.77;;;;;;;2.94;100.00;99731.13;6224016;23;20238;-82
2023/01/11 09:12:19;;;;;;;8.10;3.20;;;;;;;2.97;100.00;99736.13;6250834;23;20200;-78
2023/01/11 09:14:46;;;;;;;6.33;2.87;;;;;;;3.01;100.00;99728.66;6251268;23;20256;-79
2023/01/11 09:17:12;;;;;;;7.27;3.10;;;;;;;3.12;100.00;99733.59;6199093;23;20582;-79
2023/01/11 09:19:39;;;;;;;5.47;2.70;;;;;;;3.25;100.00;99728.59;6221734;23;20207;-79
2023/01/11 09:22:06;;;;;;;5.87;2.60;;;;;;;3.38;100.00;99723.59;6247551;23;20201;-77
2023/01/11 09:24:32;;;;;;;4.70;2.80;;;;;;;3.50;100.00;99711.59;6245296;23;20207;-76
2023/01/11 09:26:59;;;;;;;6.47;2.63;;;;;;;3.65;100.00;99714.34;6245558;23;20232;-77
2023/01/11 09:29:26;;;;;;;5.77;2.83;;;;;;;3.80;100.00;99717.94;6244920;23;20284;-77
2023/01/11 09:31:52;;;;;;;5.03;2.40;;;;;;;4.07;100.00;99721.06;6245329;23;20583;-79
2023/01/11 09:34:19;;;;;;;5.23;2.53;;;;;;;4.28;100.00;99706.19;6244987;23;20211;-77
2023/01/11 09:36:47;;;;;;;6.13;3.60;;;;;;;4.38;100.00;99708.59;6245119;23;20211;-79
2023/01/11 09:39:17;;;;;;;6.93;2.53;;;;;;;4.51;100.00;99702.69;6245470;23;20542;-79
2023/01/11 09:41:44;;;;;;;9.97;5.03;;;;;;;4.65;100.00;99710.69;6245043;23;20208;-77
2023/01/11 09:44:18;;;;;;;9.43;4.37;;;;;;;4.86;100.00;99709.97;6244358;23;20212;-79
2023/01/11 09:46:50;;;;;;;7.53;3.47;;;;;;;5.06;100.00;99708.47;6243892;23;20212;-81
2023/01/11 09:49:22;;;;;;;5.13;3.07;;;;;;;5.35;100.00;99704.16;6218300;23;20593;-79
2023/01/11 09:51:50;;;;;;;8.90;4.63;;;;;;;5.53;100.00;99699.28;6217823;23;20530;-79
2023/01/11 09:54:22;;;;;;;8.77;4.57;;;;;;;5.69;100.00;99699.09;6244823;23;20212;-78
2023/01/11 09:57:34;;;;;;;8.10;5.33;;;;;;;5.89;100.00;99702.81;6218812;23;20212;-79
2023/01/11 10:00:09;;;;;;;8.87;4.50;;;;;;;6.03;100.00;99696.63;6200027;23;20661;-79
2023/01/11 10:02:45;;;;;;;7.10;2.73;;;;;;;6.09;100.00;99682.56;6244466;23;20261;-79
2023/01/11 10:05:37;;;;;;;6.37;2.40;;;;;;;6.36;100.00;99686.31;6244815;23;20204;-79
2023/01/11 10:08:30;;;;;;;9.57;3.00;;;;;;;6.49;100.00;99681.09;6217760;23;20205;-79
2023/01/11 10:11:36;;;;;;;6.67;3.20;;;;;;;6.68;100.00;99682.28;6245325;23;20552;-79
2023/01/11 10:14:50;;;;;;;7.50;2.70;;;;;;;6.80;100.00;99674.59;6244264;23;20593;-80
2023/01/11 10:17:53;;;;;;;7.10;2.83;;;;;;;6.91;100.00;99666.03;6200921;23;20291;-79
2023/01/11 10:20:46;;;;;;;9.33;2.43;;;;;;;7.01;100.00;99670.00;6245021;23;20235;-79
2023/01/11 10:23:27;;;;;;;5.97;2.20;;;;;;;7.06;100.00;99670.25;6222660;23;20669;-81
2023/01/11 10:25:57;;;;;;;9.10;2.53;;;;;;;7.17;100.00;99658.22;6251144;23;20676;-81
2023/01/11 10:28:34;;;;;;;4.47;2.13;;;;;;;7.35;100.00;99657.69;6251297;23;20204;-81
2023/01/11 10:31:28;;;;;;;4.70;2.47;;;;;;;7.54;100.00;99654.28;6250532;23;20595;-82
2023/01/11 10:34:29;;;;;;;4.97;2.30;;;;;;;7.73;100.00;99656.22;6225509;23;20280;-82
2023/01/11 10:42:34;;;;;;;5.60;2.70;;;;;;;8.29;100.00;99653.25;6251546;23;20204;-81
2023/01/11 10:45:24;;;;;;;6.93;2.83;;;;;;;8.40;100.00;99649.97;6199754;23;20208;-81
2023/01/11 10:48:00;;;;;;;9.47;4.33;;;;;;;8.49;100.00;99638.06;6225535;23;20736;-82
2023/01/11 10:50:34;;;;;;;6.73;3.60;;;;;;;8.62;100.00;99634.59;6198393;23;20204;-81
2023/01/11 10:53:07;;;;;;;6.90;2.53;;;;;;;8.65;100.00;99634.16;6251737;23;20212;-81
2023/01/11 10:55:43;;;;;;;6.93;2.43;;;;;;;8.64;100.00;99632.50;6224655;23;20213;-81
2023/01/11 10:58:22;;;;;;;4.33;2.20;;;;;;;8.73;100.00;99631.28;6247791;23;20208;-81
2023/01/11 11:01:15;;;;;;;6.80;2.43;;;;;;;8.77;100.00;99617.28;6252269;23;20239;-81
2023/01/11 11:03:45;;;;;;;4.97;2.30;;;;;;;8.89;100.00;99616.66;6225825;23;20271;-82
2023/01/11 11:06:23;;;;;;;4.03;2.37;;;;;;;8.91;100.00;99609.28;6249254;23;20205;-82
2023/01/11 11:09:06;;;;;;;3.97;2.43;;;;;;;8.89;100.00;99606.81;6248315;23;20208;-81
2023/01/11 11:12:11;;;;;;;4.43;2.40;;;;;;;9.00;100.00;99603.50;6214201;23;20201;-81
2023/01/11 11:15:03;;;;;;;4.53;3.00;;;;;;;9.03;99.63;99595.03;6164877;23;20200;-81
2023/01/11 11:17:32;;;;;;;4.00;2.60;;;;;;;9.10;98.68;99589.66;6247208;23;20264;-81
2023/01/11 11:20:16;;;;;;;3.50;2.43;;;;;;;9.18;97.04;99594.78;6220289;23;20231;-81
2023/01/11 11:22:43;;;;;;;4.10;2.23;;;;;;;9.19;95.72;99596.44;6251741;23;20204;-81
2023/01/11 11:25:31;;;;;;;3.17;2.10;;;;;;;9.23;94.78;99603.84;6226339;23;20203;-81
2023/01/11 11:28:03;;;;;;;2.70;1.87;;;;;;;9.29;94.40;99605.63;6201212;23;20236;-81
2023/01/11 11:30:44;;;;;;;3.73;2.20;;;;;;;9.28;93.61;99595.19;6224956;23;20260;-81
2023/01/11 11:33:24;;;;;;;3.63;2.40;;;;;;;9.32;92.62;99591.03;6227434;23;20204;-82
2023/01/11 11:35:58;;;;;;;4.57;2.00;;;;;;;9.31;90.45;99588.56;6254258;23;20258;-82
2023/01/11 11:38:28;;;;;;;3.50;2.60;;;;;;;9.31;89.97;99578.69;6227126;23;20208;-81
2023/01/11 11:41:15;;;;;;;7.33;2.60;;;;;;;9.31;88.73;99576.03;6254724;23;20265;-82
2023/01/11 11:43:44;;;;;;;3.80;2.00;;;;;;;9.35;86.96;99576.41;6253764;23;20211;-81
2023/01/11 11:46:13;;;;;;;3.73;2.00;;;;;;;9.40;86.48;99582.78;6252739;23;20606;-81
2023/01/11 11:49:16;;;;;;;3.87;1.50;;;;;;;9.45;85.71;99574.09;6252986;23;20216;-81
2023/01/11 11:51:44;;;;;;;3.10;1.63;;;;;;;9.54;84.83;99560.28;6253008;23;20208;-81
2023/01/11 11:54:25;;;;;;;2.37;1.30;;;;;;;9.68;84.54;99553.81;6226058;23;20231;-80
2023/01/11 11:56:52;;;;;;;4.03;1.40;;;;;;;9.68;83.26;99545.78;6253954;23;20254;-81
2023/01/11 11:59:21;;;;;;;3.03;1.40;;;;;;;9.80;82.03;99542.44;6202038;23;20197;-81
2023/01/11 12:01:55;;;;;;;2.73;1.27;;;;;;;9.78;80.49;99544.50;6200452;23;20677;-81
2023/01/11 12:04:49;;;;;;;3.63;1.60;;;;;;;9.81;79.69;99536.84;6236899;23;20198;-81
2023/01/11 12:07:19;;;;;;;3.13;1.53;;;;;;;9.80;79.12;99539.75;6251850;23;20215;-81
2023/01/11 12:09:49;;;;;;;3.10;1.30;;;;;;;9.81;79.24;99538.69;6200650;23;20217;-81
2023/01/11 12:12:18;;;;;;;3.03;1.40;;;;;;;9.87;79.73;99535.97;6225673;23;20211;-81
2023/01/11 12:15:13;;;;;;;2.83;1.53;;;;;;;9.95;79.36;99542.91;6246251;22;20211;-80
2023/01/11 12:17:40;;;;;;;4.43;1.67;;;;;;;9.99;79.14;99533.41;6250510;23;20541;-81
2023/01/11 12:20:25;;;;;;;2.57;1.50;;;;;;;10.14;79.46;99523.19;6247279;23;20255;-80
2023/01/11 12:23:20;;;;;;;3.23;1.60;;;;;;;10.28;79.51;99508.69;6224234;23;20212;-81
2023/01/11 12:26:03;;;;;;;2.70;1.50;;;;;;;10.42;80.06;99525.44;6248229;23;20215;-81
2023/01/11 12:28:39;;;;;;;3.17;1.93;;;;;;;10.46;79.19;99513.25;6249330;23;20205;-81
2023/01/11 12:31:57;;;;;;;2.70;1.57;;;;;;;10.56;78.63;99511.69;6221770;23;20216;-81
2023/01/11 12:34:40;;;;;;;13.97;11.33;;;;;;;10.46;78.19;99503.34;6179395;23;20645;-81
2023/01/11 12:37:13;;;;;;;5.80;3.37;;;;;;;10.58;78.18;99498.91;6223127;23;20208;-82
2023/01/11 12:39:52;;;;;;;5.57;2.40;;;;;;;10.53;78.17;99497.94;6249690;23;20228;-81